sensor_id;sensor_type;location;lat;lon;timestamp;temperature;humidity
8400;DHT22;4237;47.030;15.396;2023-03-09T00:01:44;9.50;99.90
8400;DHT22;4237;47.030;15.396;2023-03-09T00:04:14;9.60;99.90
8400;DHT22;4237;47.030;15.396;2023-03-09T00:06:44;9.50;99.90
8400;DHT22;4237;47.030;15.396;2023-03-09T00:09:14;9.60;99.90
8400;DHT22;4237;47.030;15.396;2023-03-09T00:11:45;9.40;99.90
8400;DHT22;4237;47.030;15.396;2023-03-09T00:14:16;9.20;99.90
8400;DHT22;4237;47.030;15.396;2023-03-09T00:16:45;9.10;99.90
8400;DHT22;4237;47.030;15.396;2023-03-09T00:19:14;8.90;99.90
8400;DHT22;4237;47.030;15.396;2023-03-09T00:21:45;8.80;99.90
8400;DHT22;4237;47.030;15.396;2023-03-09T00:24:21;8.60;99.90
8400;DHT22;4237;47.030;15.396;2023-03-09T00:26:51;8.30;99.90
8400;DHT22;4237;47.030;15.396;2023-03-09T00:29:21;8.10;99.90
8400;DHT22;4237;47.030;15.396;2023-03-09T00:31:51;8.00;99.90
8400;DHT22;4237;47.030;15.396;2023-03-09T00:34:20;7.80;99.90
8400;DHT22;4237;47.030;15.396;2023-03-09T00:36:50;7.60;99.90
8400;DHT22;4237;47.030;15.396;2023-03-09T00:39:18;7.40;99.90
8400;DHT22;4237;47.030;15.396;2023-03-09T00:41:47;7.20;99.90
8400;DHT22;4237;47.030;15.396;2023-03-09T00:44:16;7.10;99.90
8400;DHT22;4237;47.030;15.396;2023-03-09T00:46:45;7.00;99.90
8400;DHT22;4237;47.030;15.396;2023-03-09T00:49:16;6.80;99.90
8400;DHT22;4237;47.030;15.396;2023-03-09T00:51:44;6.70;99.90
8400;DHT22;4237;47.030;15.396;2023-03-09T00:54:14;6.60;99.90
8400;DHT22;4237;47.030;15.396;2023-03-09T00:56:43;6.60;99.90
8400;DHT22;4237;47.030;15.396;2023-03-09T00:59:11;6.60;99.90
8400;DHT22;4237;47.030;15.396;2023-03-09T01:01:41;6.50;99.90
8400;DHT22;4237;47.030;15.396;2023-03-09T01:04:09;6.40;99.90
8400;DHT22;4237;47.030;15.396;2023-03-09T01:06:38;6.10;99.90
8400;DHT22;4237;47.030;15.396;2023-03-09T01:09:07;6.00;99.90
8400;DHT22;4237;47.030;15.396;2023-03-09T01:11:36;5.80;99.90
8400;DHT22;4237;47.030;15.396;2023-03-09T01:14:05;5.60;99.90
8400;DHT22;4237;47.030;15.396;2023-03-09T01:16:34;5.50;99.90
8400;DHT22;4237;47.030;15.396;2023-03-09T01:19:02;5.40;99.90
8400;DHT22;4237;47.030;15.396;2023-03-09T01:21:31;5.20;99.90
8400;DHT22;4237;47.030;15.396;2023-03-09T01:23:59;5.10;99.90
8400;DHT22;4237;47.030;15.396;2023-03-09T01:26:29;5.00;99.90
8400;DHT22;4237;47.030;15.396;2023-03-09T01:28:58;5.00;99.90
8400;DHT22;4237;47.030;15.396;2023-03-09T01:31:27;5.00;99.90
8400;DHT22;4237;47.030;15.396;2023-03-09T01:33:56;4.90;99.90
8400;DHT22;4237;47.030;15.396;2023-03-09T01:36:24;4.90;99.90
8400;DHT22;4237;47.030;15.396;2023-03-09T01:38:53;4.90;99.90
8400;DHT22;4237;47.030;15.396;2023-03-09T01:41:22;4.80;99.90
8400;DHT22;4237;47.030;15.396;2023-03-09T01:43:52;4.70;99.90
8400;DHT22;4237;47.030;15.396;2023-03-09T01:46:25;4.70;99.90
8400;DHT22;4237;47.030;15.396;2023-03-09T01:51:29;4.50;99.90
8400;DHT22;4237;47.030;15.396;2023-03-09T01:53:58;4.40;99.90
8400;DHT22;4237;47.030;15.396;2023-03-09T01:56:29;4.40;99.90
8400;DHT22;4237;47.030;15.396;2023-03-09T01:59:00;4.40;99.90
8400;DHT22;4237;47.030;15.396;2023-03-09T02:01:30;4.30;99.90
8400;DHT22;4237;47.030;15.396;2023-03-09T02:04:02;4.40;99.90
8400;DHT22;4237;47.030;15.396;2023-03-09T02:06:30;4.30;99.90
8400;DHT22;4237;47.030;15.396;2023-03-09T02:09:20;4.30;99.90
8400;DHT22;4237;47.030;15.396;2023-03-09T02:11:47;4.30;99.90
8400;DHT22;4237;47.030;15.396;2023-03-09T02:14:18;4.30;99.90
8400;DHT22;4237;47.030;15.396;2023-03-09T02:16:47;4.20;99.90
8400;DHT22;4237;47.030;15.396;2023-03-09T02:22:03;4.30;99.90
8400;DHT22;4237;47.030;15.396;2023-03-09T02:24:39;4.30;99.90
8400;DHT22;4237;47.030;15.396;2023-03-09T02:27:20;4.50;99.90
8400;DHT22;4237;47.030;15.396;2023-03-09T02:29:50;4.90;99.90
8400;DHT22;4237;47.030;15.396;2023-03-09T02:32:19;5.00;99.90
8400;DHT22;4237;47.030;15.396;2023-03-09T02:34:47;5.40;99.90
8400;DHT22;4237;47.030;15.396;2023-03-09T02:37:28;5.50;99.90
8400;DHT22;4237;47.030;15.396;2023-03-09T02:39:59;5.50;99.90
8400;DHT22;4237;47.030;15.396;2023-03-09T02:42:31;5.70;99.90
8400;DHT22;4237;47.030;15.396;2023-03-09T02:45:00;5.90;99.90
8400;DHT22;4237;47.030;15.396;2023-03-09T02:47:28;6.40;99.90
8400;DHT22;4237;47.030;15.396;2023-03-09T02:49:57;6.40;99.90
8400;DHT22;4237;47.030;15.396;2023-03-09T02:52:26;6.10;99.90
8400;DHT22;4237;47.030;15.396;2023-03-09T02:54:54;6.20;99.90
8400;DHT22;4237;47.030;15.396;2023-03-09T02:57:23;6.30;99.90
8400;DHT22;4237;47.030;15.396;2023-03-09T02:59:51;6.10;99.90
8400;DHT22;4237;47.030;15.396;2023-03-09T03:02:20;6.00;99.90
8400;DHT22;4237;47.030;15.396;2023-03-09T03:04:49;6.00;99.90
8400;DHT22;4237;47.030;15.396;2023-03-09T03:07:18;5.80;99.90
8400;DHT22;4237;47.030;15.396;2023-03-09T03:09:46;5.80;99.90
8400;DHT22;4237;47.030;15.396;2023-03-09T03:12:15;5.70;99.90
8400;DHT22;4237;47.030;15.396;2023-03-09T03:14:44;5.70;99.90
8400;DHT22;4237;47.030;15.396;2023-03-09T03:17:13;5.60;99.90
8400;DHT22;4237;47.030;15.396;2023-03-09T03:19:42;5.60;99.90
8400;DHT22;4237;47.030;15.396;2023-03-09T03:22:10;5.70;99.90
8400;DHT22;4237;47.030;15.396;2023-03-09T03:24:39;5.60;99.90
8400;DHT22;4237;47.030;15.396;2023-03-09T03:27:08;5.70;99.90
8400;DHT22;4237;47.030;15.396;2023-03-09T03:29:37;5.80;99.90
8400;DHT22;4237;47.030;15.396;2023-03-09T03:32:06;5.70;99.90
8400;DHT22;4237;47.030;15.396;2023-03-09T03:34:35;5.70;99.90
8400;DHT22;4237;47.030;15.396;2023-03-09T03:37:04;5.80;99.90
8400;DHT22;4237;47.030;15.396;2023-03-09T03:39:33;5.70;99.90
8400;DHT22;4237;47.030;15.396;2023-03-09T03:42:02;5.60;99.90
8400;DHT22;4237;47.030;15.396;2023-03-09T03:44:30;5.60;99.90
8400;DHT22;4237;47.030;15.396;2023-03-09T03:46:59;5.50;99.90
8400;DHT22;4237;47.030;15.396;2023-03-09T03:49:28;5.50;99.90
8400;DHT22;4237;47.030;15.396;2023-03-09T03:51:56;5.50;99.90
8400;DHT22;4237;47.030;15.396;2023-03-09T03:54:25;5.50;99.90
8400;DHT22;4237;47.030;15.396;2023-03-09T03:56:54;5.40;99.90
8400;DHT22;4237;47.030;15.396;2023-03-09T03:59:23;5.30;99.90
8400;DHT22;4237;47.030;15.396;2023-03-09T04:01:51;5.30;99.90
8400;DHT22;4237;47.030;15.396;2023-03-09T04:04:20;5.20;99.90
8400;DHT22;4237;47.030;15.396;2023-03-09T04:06:49;5.20;99.90
8400;DHT22;4237;47.030;15.396;2023-03-09T04:09:17;5.20;99.90
8400;DHT22;4237;47.030;15.396;2023-03-09T04:11:46;5.10;99.90
8400;DHT22;4237;47.030;15.396;2023-03-09T04:14:14;5.00;99.90
8400;DHT22;4237;47.030;15.396;2023-03-09T04:16:43;5.10;99.90
8400;DHT22;4237;47.030;15.396;2023-03-09T04:19:11;5.10;99.90
8400;DHT22;4237;47.030;15.396;2023-03-09T04:21:40;5.50;99.90
8400;DHT22;4237;47.030;15.396;2023-03-09T04:24:09;5.70;99.90
8400;DHT22;4237;47.030;15.396;2023-03-09T04:26:37;5.80;99.90
8400;DHT22;4237;47.030;15.396;2023-03-09T04:29:06;5.90;99.90
8400;DHT22;4237;47.030;15.396;2023-03-09T04:31:34;5.90;99.90
8400;DHT22;4237;47.030;15.396;2023-03-09T04:34:03;5.90;99.90
8400;DHT22;4237;47.030;15.396;2023-03-09T04:36:32;5.90;99.90
8400;DHT22;4237;47.030;15.396;2023-03-09T04:39:01;5.80;99.90
8400;DHT22;4237;47.030;15.396;2023-03-09T04:41:32;5.70;99.90
8400;DHT22;4237;47.030;15.396;2023-03-09T04:44:01;5.80;99.90
8400;DHT22;4237;47.030;15.396;2023-03-09T04:46:30;5.90;99.90
8400;DHT22;4237;47.030;15.396;2023-03-09T04:48:58;6.00;99.90
8400;DHT22;4237;47.030;15.396;2023-03-09T04:51:27;5.90;99.90
8400;DHT22;4237;47.030;15.396;2023-03-09T04:53:56;5.90;99.90
8400;DHT22;4237;47.030;15.396;2023-03-09T04:56:25;5.90;99.90
8400;DHT22;4237;47.030;15.396;2023-03-09T04:58:54;5.70;99.90
8400;DHT22;4237;47.030;15.396;2023-03-09T05:01:23;5.70;99.90
8400;DHT22;4237;47.030;15.396;2023-03-09T05:03:52;5.70;99.90
8400;DHT22;4237;47.030;15.396;2023-03-09T05:06:20;5.60;99.90
8400;DHT22;4237;47.030;15.396;2023-03-09T05:08:49;5.60;99.90
8400;DHT22;4237;47.030;15.396;2023-03-09T05:11:17;5.60;99.90
8400;DHT22;4237;47.030;15.396;2023-03-09T05:13:46;5.60;99.90
8400;DHT22;4237;47.030;15.396;2023-03-09T05:16:14;5.60;99.90
8400;DHT22;4237;47.030;15.396;2023-03-09T05:18:43;5.60;99.90
8400;DHT22;4237;47.030;15.396;2023-03-09T05:21:11;5.60;99.90
8400;DHT22;4237;47.030;15.396;2023-03-09T05:23:40;5.60;99.90
8400;DHT22;4237;47.030;15.396;2023-03-09T05:26:09;5.50;99.90
8400;DHT22;4237;47.030;15.396;2023-03-09T05:28:38;5.40;99.90
8400;DHT22;4237;47.030;15.396;2023-03-09T05:31:13;5.40;99.90
8400;DHT22;4237;47.030;15.396;2023-03-09T05:33:41;5.40;99.90
8400;DHT22;4237;47.030;15.396;2023-03-09T05:36:18;5.40;99.90
8400;DHT22;4237;47.030;15.396;2023-03-09T05:38:49;5.40;99.90
8400;DHT22;4237;47.030;15.396;2023-03-09T05:41:20;5.60;99.90
8400;DHT22;4237;47.030;15.396;2023-03-09T05:43:49;5.60;99.90
8400;DHT22;4237;47.030;15.396;2023-03-09T05:46:18;5.60;99.90
8400;DHT22;4237;47.030;15.396;2023-03-09T05:48:47;5.60;99.90
8400;DHT22;4237;47.030;15.396;2023-03-09T05:51:16;5.40;99.90
8400;DHT22;4237;47.030;15.396;2023-03-09T05:53:46;5.40;99.90
8400;DHT22;4237;47.030;15.396;2023-03-09T05:56:15;5.30;99.90
8400;DHT22;4237;47.030;15.396;2023-03-09T05:58:44;5.20;99.90
8400;DHT22;4237;47.030;15.396;2023-03-09T06:01:21;5.20;99.90
8400;DHT22;4237;47.030;15.396;2023-03-09T06:03:46;5.10;99.90
8400;DHT22;4237;47.030;15.396;2023-03-09T06:06:17;5.20;99.90
8400;DHT22;4237;47.030;15.396;2023-03-09T06:08:45;5.10;99.90
8400;DHT22;4237;47.030;15.396;2023-03-09T06:11:15;5.00;99.90
8400;DHT22;4237;47.030;15.396;2023-03-09T06:13:44;4.90;99.90
8400;DHT22;4237;47.030;15.396;2023-03-09T06:16:14;4.90;99.90
8400;DHT22;4237;47.030;15.396;2023-03-09T06:18:44;4.90;99.90
8400;DHT22;4237;47.030;15.396;2023-03-09T06:21:13;5.00;99.90
8400;DHT22;4237;47.030;15.396;2023-03-09T06:27:05;7.50;99.90
8400;DHT22;4237;47.030;15.396;2023-03-09T06:29:34;10.20;99.90
8400;DHT22;4237;47.030;15.396;2023-03-09T06:32:03;11.80;99.90
8400;DHT22;4237;47.030;15.396;2023-03-09T06:34:33;13.00;99.90
8400;DHT22;4237;47.030;15.396;2023-03-09T06:37:03;13.00;99.90
8400;DHT22;4237;47.030;15.396;2023-03-09T06:39:32;14.60;99.90
8400;DHT22;4237;47.030;15.396;2023-03-09T06:42:00;16.00;99.90
8400;DHT22;4237;47.030;15.396;2023-03-09T06:44:29;16.20;99.90
8400;DHT22;4237;47.030;15.396;2023-03-09T06:46:57;16.70;99.90
8400;DHT22;4237;47.030;15.396;2023-03-09T06:49:26;16.60;99.90
8400;DHT22;4237;47.030;15.396;2023-03-09T06:51:54;14.60;99.90
8400;DHT22;4237;47.030;15.396;2023-03-09T06:54:24;14.60;99.90
8400;DHT22;4237;47.030;15.396;2023-03-09T06:56:53;15.30;99.90
8400;DHT22;4237;47.030;15.396;2023-03-09T06:59:22;16.70;99.90
8400;DHT22;4237;47.030;15.396;2023-03-09T07:01:50;18.40;99.90
8400;DHT22;4237;47.030;15.396;2023-03-09T07:04:19;19.40;99.90
8400;DHT22;4237;47.030;15.396;2023-03-09T07:06:48;20.90;99.90
8400;DHT22;4237;47.030;15.396;2023-03-09T07:09:16;22.70;99.90
8400;DHT22;4237;47.030;15.396;2023-03-09T07:11:45;23.00;99.90
8400;DHT22;4237;47.030;15.396;2023-03-09T07:14:15;23.30;99.90
8400;DHT22;4237;47.030;15.396;2023-03-09T07:16:49;24.70;99.30
8400;DHT22;4237;47.030;15.396;2023-03-09T07:19:13;26.20;96.50
8400;DHT22;4237;47.030;15.396;2023-03-09T07:21:43;26.60;93.60
8400;DHT22;4237;47.030;15.396;2023-03-09T07:24:11;26.70;90.90
8400;DHT22;4237;47.030;15.396;2023-03-09T07:26:40;25.20;92.80
8400;DHT22;4237;47.030;15.396;2023-03-09T07:29:09;24.20;93.20
8400;DHT22;4237;47.030;15.396;2023-03-09T07:31:39;21.10;97.80
8400;DHT22;4237;47.030;15.396;2023-03-09T07:34:07;19.80;99.90
8400;DHT22;4237;47.030;15.396;2023-03-09T07:36:36;19.40;99.90
8400;DHT22;4237;47.030;15.396;2023-03-09T07:39:05;19.90;99.90
8400;DHT22;4237;47.030;15.396;2023-03-09T07:41:34;21.00;99.90
8400;DHT22;4237;47.030;15.396;2023-03-09T07:44:02;22.20;99.90
8400;DHT22;4237;47.030;15.396;2023-03-09T07:46:31;20.10;99.90
8400;DHT22;4237;47.030;15.396;2023-03-09T07:49:00;18.20;99.90
8400;DHT22;4237;47.030;15.396;2023-03-09T07:51:29;16.80;99.90
8400;DHT22;4237;47.030;15.396;2023-03-09T07:53:57;16.40;99.90
8400;DHT22;4237;47.030;15.396;2023-03-09T07:56:26;16.30;99.90
8400;DHT22;4237;47.030;15.396;2023-03-09T07:58:55;16.50;99.90
8400;DHT22;4237;47.030;15.396;2023-03-09T08:01:23;17.20;99.90
8400;DHT22;4237;47.030;15.396;2023-03-09T08:03:52;18.00;99.90
8400;DHT22;4237;47.030;15.396;2023-03-09T08:06:21;19.80;99.90
8400;DHT22;4237;47.030;15.396;2023-03-09T08:08:51;21.60;99.90
8400;DHT22;4237;47.030;15.396;2023-03-09T08:11:19;20.80;99.90
8400;DHT22;4237;47.030;15.396;2023-03-09T08:13:48;22.20;99.90
8400;DHT22;4237;47.030;15.396;2023-03-09T08:16:16;23.10;99.90
8400;DHT22;4237;47.030;15.396;2023-03-09T08:18:45;24.00;96.20
8400;DHT22;4237;47.030;15.396;2023-03-09T08:21:14;23.60;96.10
8400;DHT22;4237;47.030;15.396;2023-03-09T08:23:44;23.10;97.00
8400;DHT22;4237;47.030;15.396;2023-03-09T08:26:15;24.60;95.80
8400;DHT22;4237;47.030;15.396;2023-03-09T08:28:45;23.70;93.90
8400;DHT22;4237;47.030;15.396;2023-03-09T08:31:15;22.70;96.40
8400;DHT22;4237;47.030;15.396;2023-03-09T08:33:44;23.20;96.80
8400;DHT22;4237;47.030;15.396;2023-03-09T08:36:20;23.90;97.10
8400;DHT22;4237;47.030;15.396;2023-03-09T08:38:45;24.40;94.70
8400;DHT22;4237;47.030;15.396;2023-03-09T08:41:15;24.40;94.80
8400;DHT22;4237;47.030;15.396;2023-03-09T08:43:45;23.50;95.80
8400;DHT22;4237;47.030;15.396;2023-03-09T08:46:14;22.30;96.80
8400;DHT22;4237;47.030;15.396;2023-03-09T08:48:45;21.90;98.40
8400;DHT22;4237;47.030;15.396;2023-03-09T08:51:15;22.40;98.00
8400;DHT22;4237;47.030;15.396;2023-03-09T08:53:44;22.00;97.40
8400;DHT22;4237;47.030;15.396;2023-03-09T08:56:13;21.80;98.60
8400;DHT22;4237;47.030;15.396;2023-03-09T08:58:42;22.20;97.80
8400;DHT22;4237;47.030;15.396;2023-03-09T09:01:10;21.50;98.60
8400;DHT22;4237;47.030;15.396;2023-03-09T09:03:40;21.40;98.30
8400;DHT22;4237;47.030;15.396;2023-03-09T09:06:15;22.00;98.30
8400;DHT22;4237;47.030;15.396;2023-03-09T09:08:41;23.60;98.00
8400;DHT22;4237;47.030;15.396;2023-03-09T09:11:13;23.80;96.20
8400;DHT22;4237;47.030;15.396;2023-03-09T09:13:42;25.00;93.70
8400;DHT22;4237;47.030;15.396;2023-03-09T09:16:15;23.90;94.80
8400;DHT22;4237;47.030;15.396;2023-03-09T09:18:43;23.90;95.10
8400;DHT22;4237;47.030;15.396;2023-03-09T09:21:14;22.80;95.80
8400;DHT22;4237;47.030;15.396;2023-03-09T09:23:44;22.60;96.60
8400;DHT22;4237;47.030;15.396;2023-03-09T09:26:13;22.50;96.30
8400;DHT22;4237;47.030;15.396;2023-03-09T09:28:44;23.10;95.50
8400;DHT22;4237;47.030;15.396;2023-03-09T09:31:17;24.20;95.30
8400;DHT22;4237;47.030;15.396;2023-03-09T09:33:47;24.70;92.80
8400;DHT22;4237;47.030;15.396;2023-03-09T09:36:16;25.20;92.40
8400;DHT22;4237;47.030;15.396;2023-03-09T09:38:47;25.60;92.20
8400;DHT22;4237;47.030;15.396;2023-03-09T09:43:53;23.30;94.00
8400;DHT22;4237;47.030;15.396;2023-03-09T09:46:22;23.10;94.50
8400;DHT22;4237;47.030;15.396;2023-03-09T09:48:51;23.30;93.60
8400;DHT22;4237;47.030;15.396;2023-03-09T09:56:58;20.50;98.60
8400;DHT22;4237;47.030;15.396;2023-03-09T10:07:43;21.90;96.40
8400;DHT22;4237;47.030;15.396;2023-03-09T10:10:21;22.20;95.30
8400;DHT22;4237;47.030;15.396;2023-03-09T10:12:50;22.30;94.70
8400;DHT22;4237;47.030;15.396;2023-03-09T10:15:26;21.20;94.80
8400;DHT22;4237;47.030;15.396;2023-03-09T10:18:04;20.60;96.20
8400;DHT22;4237;47.030;15.396;2023-03-09T10:20:39;21.70;96.10
8400;DHT22;4237;47.030;15.396;2023-03-09T10:28:44;22.70;94.40
8400;DHT22;4237;47.030;15.396;2023-03-09T10:31:22;23.10;92.60
8400;DHT22;4237;47.030;15.396;2023-03-09T10:34:08;22.60;93.30
8400;DHT22;4237;47.030;15.396;2023-03-09T10:36:36;22.40;95.30
8400;DHT22;4237;47.030;15.396;2023-03-09T10:39:11;20.10;96.70
8400;DHT22;4237;47.030;15.396;2023-03-09T10:41:41;19.50;99.20
8400;DHT22;4237;47.030;15.396;2023-03-09T10:44:16;18.50;99.90
8400;DHT22;4237;47.030;15.396;2023-03-09T10:46:58;17.90;99.90
8400;DHT22;4237;47.030;15.396;2023-03-09T10:49:28;18.00;99.90
8400;DHT22;4237;47.030;15.396;2023-03-09T10:52:05;17.60;99.90
8400;DHT22;4237;47.030;15.396;2023-03-09T10:54:39;17.70;99.90
8400;DHT22;4237;47.030;15.396;2023-03-09T10:57:28;19.10;99.90
8400;DHT22;4237;47.030;15.396;2023-03-09T11:00:05;21.80;97.20
8400;DHT22;4237;47.030;15.396;2023-03-09T11:02:35;23.60;93.10
8400;DHT22;4237;47.030;15.396;2023-03-09T11:05:22;20.30;95.80
8400;DHT22;4237;47.030;15.396;2023-03-09T11:07:56;18.30;99.20
8400;DHT22;4237;47.030;15.396;2023-03-09T11:10:28;17.70;99.90
8400;DHT22;4237;47.030;15.396;2023-03-09T11:12:59;17.70;99.90
8400;DHT22;4237;47.030;15.396;2023-03-09T11:15:35;17.10;99.90
8400;DHT22;4237;47.030;15.396;2023-03-09T11:18:29;17.40;99.90
8400;DHT22;4237;47.030;15.396;2023-03-09T11:20:58;17.60;99.90
8400;DHT22;4237;47.030;15.396;2023-03-09T11:23:38;18.30;99.90
8400;DHT22;4237;47.030;15.396;2023-03-09T11:26:27;18.50;99.90
8400;DHT22;4237;47.030;15.396;2023-03-09T11:31:39;20.70;97.80
8400;DHT22;4237;47.030;15.396;2023-03-09T11:34:13;20.40;96.70
8400;DHT22;4237;47.030;15.396;2023-03-09T11:36:59;20.60;97.10
8400;DHT22;4237;47.030;15.396;2023-03-09T11:39:32;21.20;96.40
8400;DHT22;4237;47.030;15.396;2023-03-09T11:42:03;23.80;93.90
8400;DHT22;4237;47.030;15.396;2023-03-09T11:44:39;23.50;91.30
8400;DHT22;4237;47.030;15.396;2023-03-09T11:47:08;24.70;91.40
8400;DHT22;4237;47.030;15.396;2023-03-09T11:49:36;25.30;88.10
8400;DHT22;4237;47.030;15.396;2023-03-09T11:52:10;25.00;81.70
8400;DHT22;4237;47.030;15.396;2023-03-09T11:54:42;24.70;82.20
8400;DHT22;4237;47.030;15.396;2023-03-09T11:57:14;24.10;81.60
8400;DHT22;4237;47.030;15.396;2023-03-09T12:00:00;23.50;80.70
8400;DHT22;4237;47.030;15.396;2023-03-09T12:05:22;25.50;77.90
8400;DHT22;4237;47.030;15.396;2023-03-09T12:08:01;26.00;78.60
8400;DHT22;4237;47.030;15.396;2023-03-09T12:10:35;24.40;77.10
8400;DHT22;4237;47.030;15.396;2023-03-09T12:16:02;29.00;74.60
8400;DHT22;4237;47.030;15.396;2023-03-09T12:18:39;27.20;72.20
8400;DHT22;4237;47.030;15.396;2023-03-09T12:21:08;28.20;73.00
8400;DHT22;4237;47.030;15.396;2023-03-09T12:23:43;25.20;74.50
8400;DHT22;4237;47.030;15.396;2023-03-09T12:26:27;27.60;74.10
8400;DHT22;4237;47.030;15.396;2023-03-09T12:31:43;29.20;68.70
8400;DHT22;4237;47.030;15.396;2023-03-09T12:36:45;30.20;67.30
8400;DHT22;4237;47.030;15.396;2023-03-09T12:53:17;24.10;73.30
8400;DHT22;4237;47.030;15.396;2023-03-09T13:03:48;21.90;72.20
8400;DHT22;4237;47.030;15.396;2023-03-09T13:11:58;23.90;71.80
8400;DHT22;4237;47.030;15.396;2023-03-09T13:17:01;22.90;70.80
8400;DHT22;4237;47.030;15.396;2023-03-09T13:19:50;22.30;71.30
8400;DHT22;4237;47.030;15.396;2023-03-09T13:22:21;21.50;72.90
8400;DHT22;4237;47.030;15.396;2023-03-09T13:25:05;22.50;71.50
8400;DHT22;4237;47.030;15.396;2023-03-09T13:27:27;23.70;70.10
8400;DHT22;4237;47.030;15.396;2023-03-09T13:30:13;22.50;71.00
8400;DHT22;4237;47.030;15.396;2023-03-09T13:32:39;21.80;72.20
8400;DHT22;4237;47.030;15.396;2023-03-09T13:35:20;21.80;73.10
8400;DHT22;4237;47.030;15.396;2023-03-09T13:37:53;20.40;73.60
8400;DHT22;4237;47.030;15.396;2023-03-09T13:40:31;20.80;75.00
8400;DHT22;4237;47.030;15.396;2023-03-09T13:43:04;22.00;74.70
8400;DHT22;4237;47.030;15.396;2023-03-09T13:45:33;22.20;73.70
8400;DHT22;4237;47.030;15.396;2023-03-09T13:48:04;22.60;74.70
8400;DHT22;4237;47.030;15.396;2023-03-09T13:50:34;23.10;72.40
8400;DHT22;4237;47.030;15.396;2023-03-09T13:53:25;22.20;72.20
8400;DHT22;4237;47.030;15.396;2023-03-09T13:55:38;22.80;74.10
8400;DHT22;4237;47.030;15.396;2023-03-09T13:58:18;23.30;71.80
8400;DHT22;4237;47.030;15.396;2023-03-09T14:00:58;23.50;69.00
8400;DHT22;4237;47.030;15.396;2023-03-09T14:03:30;22.70;71.30
8400;DHT22;4237;47.030;15.396;2023-03-09T14:06:04;21.90;72.00
8400;DHT22;4237;47.030;15.396;2023-03-09T14:08:39;22.10;71.40
8400;DHT22;4237;47.030;15.396;2023-03-09T14:11:06;22.30;70.50
8400;DHT22;4237;47.030;15.396;2023-03-09T14:13:36;22.80;70.60
8400;DHT22;4237;47.030;15.396;2023-03-09T14:16:10;22.30;71.60
8400;DHT22;4237;47.030;15.396;2023-03-09T14:18:41;22.20;70.70
8400;DHT22;4237;47.030;15.396;2023-03-09T14:21:31;21.50;71.20
8400;DHT22;4237;47.030;15.396;2023-03-09T14:26:49;21.50;71.10
8400;DHT22;4237;47.030;15.396;2023-03-09T14:29:29;22.30;71.10
8400;DHT22;4237;47.030;15.396;2023-03-09T14:32:22;22.30;68.60
8400;DHT22;4237;47.030;15.396;2023-03-09T14:34:52;22.10;70.50
8400;DHT22;4237;47.030;15.396;2023-03-09T14:37:29;21.30;69.90
8400;DHT22;4237;47.030;15.396;2023-03-09T14:40:00;21.30;71.60
8400;DHT22;4237;47.030;15.396;2023-03-09T14:42:30;22.60;70.20
8400;DHT22;4237;47.030;15.396;2023-03-09T14:47:40;22.10;70.80
8400;DHT22;4237;47.030;15.396;2023-03-09T14:50:17;21.50;71.10
8400;DHT22;4237;47.030;15.396;2023-03-09T14:52:48;20.60;73.00
8400;DHT22;4237;47.030;15.396;2023-03-09T14:55:20;19.40;75.40
8400;DHT22;4237;47.030;15.396;2023-03-09T14:57:50;19.90;75.50
8400;DHT22;4237;47.030;15.396;2023-03-09T15:00:21;21.30;75.40
8400;DHT22;4237;47.030;15.396;2023-03-09T15:02:52;22.10;72.80
8400;DHT22;4237;47.030;15.396;2023-03-09T15:05:23;21.70;72.70
8400;DHT22;4237;47.030;15.396;2023-03-09T15:07:52;21.60;73.30
8400;DHT22;4237;47.030;15.396;2023-03-09T15:10:21;21.40;73.40
8400;DHT22;4237;47.030;15.396;2023-03-09T15:12:51;22.30;72.20
8400;DHT22;4237;47.030;15.396;2023-03-09T15:15:21;22.40;70.50
8400;DHT22;4237;47.030;15.396;2023-03-09T15:17:51;21.80;71.60
8400;DHT22;4237;47.030;15.396;2023-03-09T15:20:23;21.70;72.00
8400;DHT22;4237;47.030;15.396;2023-03-09T15:22:52;22.10;73.60
8400;DHT22;4237;47.030;15.396;2023-03-09T15:25:22;22.20;71.10
8400;DHT22;4237;47.030;15.396;2023-03-09T15:27:51;21.80;70.00
8400;DHT22;4237;47.030;15.396;2023-03-09T15:30:19;21.40;73.60
8400;DHT22;4237;47.030;15.396;2023-03-09T15:32:48;21.60;73.00
8400;DHT22;4237;47.030;15.396;2023-03-09T15:35:21;21.90;72.70
8400;DHT22;4237;47.030;15.396;2023-03-09T15:37:50;21.40;72.30
8400;DHT22;4237;47.030;15.396;2023-03-09T15:40:18;21.40;73.10
8400;DHT22;4237;47.030;15.396;2023-03-09T15:42:47;21.20;73.80
8400;DHT22;4237;47.030;15.396;2023-03-09T15:45:16;20.80;73.00
8400;DHT22;4237;47.030;15.396;2023-03-09T15:47:45;20.40;75.60
8400;DHT22;4237;47.030;15.396;2023-03-09T15:50:14;20.00;75.40
8400;DHT22;4237;47.030;15.396;2023-03-09T15:52:42;20.10;76.10
8400;DHT22;4237;47.030;15.396;2023-03-09T15:55:11;20.00;75.50
8400;DHT22;4237;47.030;15.396;2023-03-09T15:57:40;19.60;77.30
8400;DHT22;4237;47.030;15.396;2023-03-09T16:00:10;19.20;76.00
8400;DHT22;4237;47.030;15.396;2023-03-09T16:02:39;19.10;76.70
8400;DHT22;4237;47.030;15.396;2023-03-09T16:05:09;18.80;77.10
8400;DHT22;4237;47.030;15.396;2023-03-09T16:07:38;18.60;77.80
8400;DHT22;4237;47.030;15.396;2023-03-09T16:10:08;18.90;78.50
8400;DHT22;4237;47.030;15.396;2023-03-09T16:12:37;19.00;79.20
8400;DHT22;4237;47.030;15.396;2023-03-09T16:15:08;19.20;79.60
8400;DHT22;4237;47.030;15.396;2023-03-09T16:17:36;19.30;80.10
8400;DHT22;4237;47.030;15.396;2023-03-09T16:20:06;19.50;80.30
8400;DHT22;4237;47.030;15.396;2023-03-09T16:22:37;19.10;79.80
8400;DHT22;4237;47.030;15.396;2023-03-09T16:25:06;18.20;85.20
8400;DHT22;4237;47.030;15.396;2023-03-09T16:27:35;17.50;90.40
8400;DHT22;4237;47.030;15.396;2023-03-09T16:30:05;17.10;92.70
8400;DHT22;4237;47.030;15.396;2023-03-09T16:32:34;16.50;93.50
8400;DHT22;4237;47.030;15.396;2023-03-09T16:35:08;16.20;95.40
8400;DHT22;4237;47.030;15.396;2023-03-09T16:37:37;15.70;93.40
8400;DHT22;4237;47.030;15.396;2023-03-09T16:40:09;15.60;92.70
8400;DHT22;4237;47.030;15.396;2023-03-09T16:42:38;15.30;94.50
8400;DHT22;4237;47.030;15.396;2023-03-09T16:45:08;15.10;93.20
8400;DHT22;4237;47.030;15.396;2023-03-09T16:47:37;14.90;94.60
8400;DHT22;4237;47.030;15.396;2023-03-09T16:50:11;14.70;96.10
8400;DHT22;4237;47.030;15.396;2023-03-09T16:52:38;14.50;97.10
8400;DHT22;4237;47.030;15.396;2023-03-09T16:55:10;14.20;96.60
8400;DHT22;4237;47.030;15.396;2023-03-09T16:57:39;14.20;96.30
8400;DHT22;4237;47.030;15.396;2023-03-09T17:00:11;14.10;96.30
8400;DHT22;4237;47.030;15.396;2023-03-09T17:02:41;14.10;95.50
8400;DHT22;4237;47.030;15.396;2023-03-09T17:05:12;14.20;94.40
8400;DHT22;4237;47.030;15.396;2023-03-09T17:07:41;14.20;94.40
8400;DHT22;4237;47.030;15.396;2023-03-09T17:10:14;14.30;94.60
8400;DHT22;4237;47.030;15.396;2023-03-09T17:12:42;14.20;93.80
8400;DHT22;4237;47.030;15.396;2023-03-09T17:15:11;14.00;96.10
8400;DHT22;4237;47.030;15.396;2023-03-09T17:17:40;13.70;98.10
8400;DHT22;4237;47.030;15.396;2023-03-09T17:20:11;13.40;99.20
8400;DHT22;4237;47.030;15.396;2023-03-09T17:22:42;13.00;99.90
8400;DHT22;4237;47.030;15.396;2023-03-09T17:25:16;12.80;99.90
8400;DHT22;4237;47.030;15.396;2023-03-09T17:27:45;12.70;99.90
8400;DHT22;4237;47.030;15.396;2023-03-09T17:30:19;12.60;99.90
8400;DHT22;4237;47.030;15.396;2023-03-09T17:32:49;12.40;99.90
8400;DHT22;4237;47.030;15.396;2023-03-09T17:35:18;12.20;99.90